Time;durP1;ratioP1;P1;durP2;ratioP2;P2;SDS_P1;SDS_P2;PMS_P1;PMS_P2;Temp;Humidity;BMP_temperature;BMP_pressure;BME280_temperature;BME280_humidity;BME280_pressure;Samples;Min_cycle;Max_cycle;Signal;HPM_P1;HPM_P2
2021/04/12 00:09:23;;;;;;;58.35;32.33;;;;;;;9.58;33.62;100734.81;1745583;79;22800;-46
2021/04/12 00:11:59;;;;;;;53.20;31.40;;;;;;;9.51;33.63;100735.94;1729542;81;21636;-46
2021/04/12 00:14:44;;;;;;;54.08;32.28;;;;;;;9.48;33.85;100738.70;1650652;82;22241;-46
2021/04/12 00:17:31;;;;;;;56.28;32.98;;;;;;;9.49;34.05;100732.42;1833600;75;22775;-46
2021/04/12 00:20:18;;;;;;;63.55;33.80;;;;;;;9.38;34.10;100737.66;1812101;78;21013;-46
2021/04/12 00:22:57;;;;;;;64.90;34.90;;;;;;;9.35;34.25;100731.00;1811142;77;21333;-46
2021/04/12 00:25:39;;;;;;;56.10;34.67;;;;;;;9.32;34.37;100728.42;1811379;77;21010;-45
2021/04/12 00:28:36;;;;;;;67.03;34.75;;;;;;;9.31;34.54;100719.02;1775323;78;22894;-45
2021/04/12 00:31:21;;;;;;;58.28;35.35;;;;;;;9.21;34.73;100718.40;1747040;80;21653;-45
2021/04/12 00:34:11;;;;;;;54.65;34.10;;;;;;;9.15;34.73;100714.55;1753919;80;21394;-46
2021/04/12 00:37:06;;;;;;;57.67;34.73;;;;;;;9.15;34.86;100714.55;1824045;77;22888;-45
2021/04/12 00:39:44;;;;;;;58.15;34.80;;;;;;;9.07;34.89;100721.98;1790541;78;21163;-45
2021/04/12 00:43:01;;;;;;;59.42;35.88;;;;;;;9.08;35.08;100708.47;1855010;75;23408;-49
2021/04/12 00:46:25;;;;;;;56.70;34.40;;;;;;;9.02;35.15;100710.45;1830468;77;20958;-48
2021/04/12 00:49:36;;;;;;;61.55;37.30;;;;;;;9.06;35.08;100708.11;1782036;80;21950;-48
2021/04/12 00:52:40;;;;;;;63.00;36.98;;;;;;;9.05;35.30;100707.66;1774517;79;21017;-49
2021/04/12 00:55:33;;;;;;;61.25;36.10;;;;;;;9.01;35.50;100711.39;1768583;79;20982;-48
2021/04/12 00:58:23;;;;;;;59.95;33.98;;;;;;;8.97;35.57;100707.02;1769148;79;20942;-50
2021/04/12 01:01:15;;;;;;;56.90;33.95;;;;;;;8.96;35.60;100707.95;1772739;79;20977;-48
2021/04/12 01:04:01;;;;;;;57.00;34.95;;;;;;;8.95;35.69;100708.84;1752658;79;21389;-49
2021/04/12 01:07:21;;;;;;;64.97;35.43;;;;;;;8.95;36.13;100706.16;1838832;76;23077;-49
2021/04/12 01:10:14;;;;;;;55.83;35.25;;;;;;;8.89;36.36;100708.13;1813153;77;22858;-49
2021/04/12 01:13:22;;;;;;;69.32;39.48;;;;;;;8.79;36.41;100702.58;1782034;79;21581;-49
2021/04/12 01:16:23;;;;;;;60.95;36.63;;;;;;;8.78;37.00;100695.41;1807951;76;22701;-48
2021/04/12 01:19:30;;;;;;;68.70;37.50;;;;;;;8.70;37.49;100698.78;1776208;79;21077;-49
2021/04/12 01:22:39;;;;;;;67.67;39.83;;;;;;;8.63;38.12;100698.55;1775701;79;21381;-52
2021/04/12 01:25:49;;;;;;;73.12;42.50;;;;;;;8.54;38.90;100689.38;1771287;79;21542;-49
2021/04/12 01:28:54;;;;;;;81.17;45.17;;;;;;;8.42;41.02;100691.05;1771424;79;21550;-49
2021/04/12 01:31:46;;;;;;;81.85;44.30;;;;;;;8.24;41.27;100687.86;1776742;79;21381;-48
2021/04/12 01:34:52;;;;;;;76.57;42.43;;;;;;;8.09;41.54;100689.13;1777227;79;21191;-49
2021/04/12 01:37:41;;;;;;;85.77;43.20;;;;;;;8.02;42.63;100683.96;1776717;79;22351;-48
2021/04/12 01:40:25;;;;;;;89.15;50.52;;;;;;;7.89;42.99;100680.70;1776844;79;20989;-49
2021/04/12 01:43:04;;;;;;;84.80;47.55;;;;;;;7.80;43.57;100677.77;1776000;79;21005;-49
2021/04/12 01:45:48;;;;;;;87.25;48.68;;;;;;;7.74;43.83;100683.29;1776859;79;21480;-49
2021/04/12 01:49:00;;;;;;;82.37;46.68;;;;;;;7.72;44.05;100671.69;1745091;80;21430;-49
2021/04/12 01:51:38;;;;;;;;;;;;;;;7.65;44.65;100666.05;1779400;79;21385;-49
2021/04/12 01:54:49;;;;;;;84.50;47.13;;;;;;;7.54;45.08;100666.77;1763978;79;20172;-50
2021/04/12 01:57:41;;;;;;;80.87;44.35;;;;;;;7.46;45.73;100663.39;1777896;79;21616;-48
2021/04/12 02:00:35;;;;;;;79.12;42.58;;;;;;;7.33;47.40;100656.94;1777057;79;21624;-50
2021/04/12 02:03:15;;;;;;;79.70;43.87;;;;;;;7.18;47.48;100661.29;1745777;80;21530;-49
2021/04/12 02:06:23;;;;;;;74.42;42.33;;;;;;;7.06;47.82;100658.88;1777156;79;21374;-48
2021/04/12 02:09:16;;;;;;;69.32;38.90;;;;;;;6.98;47.42;100660.86;1776273;79;21573;-48
2021/04/12 02:12:10;;;;;;;73.23;41.63;;;;;;;6.91;47.39;100661.88;1776281;79;20994;-48
2021/04/12 02:14:53;;;;;;;72.12;41.28;;;;;;;6.85;47.44;100656.65;1774106;79;20983;-49
2021/04/12 02:17:46;;;;;;;62.05;38.20;;;;;;;6.82;47.60;100657.61;1799490;76;22759;-48
2021/04/12 02:20:58;;;;;;;67.50;38.38;;;;;;;6.69;47.18;100653.39;1723086;79;21069;-47
2021/04/12 02:24:00;;;;;;;65.90;36.42;;;;;;;6.65;46.69;100655.23;1783446;79;21402;-49
2021/04/12 02:26:39;;;;;;;62.93;35.33;;;;;;;6.66;46.39;100650.33;1784254;79;21573;-50
2021/04/12 02:29:44;;;;;;;67.67;38.10;;;;;;;6.66;46.57;100646.31;1782120;79;20982;-50
2021/04/12 02:32:38;;;;;;;65.03;38.08;;;;;;;6.65;47.17;100644.98;1782732;79;21656;-50
2021/04/12 02:35:24;;;;;;;67.97;37.95;;;;;;;6.53;47.58;100650.13;1783362;79;21521;-51
2021/04/12 02:38:03;;;;;;;64.70;37.65;;;;;;;6.44;47.66;100647.16;1782098;79;21952;-51
2021/04/12 02:41:07;;;;;;;60.12;35.48;;;;;;;6.42;47.41;100646.77;1783588;79;21052;-51
2021/04/12 02:43:56;;;;;;;59.83;33.88;;;;;;;6.43;47.08;100642.72;1780713;79;21601;-50
2021/04/12 02:46:56;;;;;;;67.92;36.77;;;;;;;6.45;47.11;100645.39;1783135;78;21533;-49
2021/04/12 02:49:44;;;;;;;58.33;35.98;;;;;;;6.43;47.33;100644.52;1782456;79;20989;-49
2021/04/12 02:52:30;;;;;;;62.13;37.33;;;;;;;6.41;47.21;100640.53;1783470;79;21417;-50
2021/04/12 02:55:24;;;;;;;60.60;35.80;;;;;;;6.41;47.23;100631.62;1783377;78;21002;-49
2021/04/12 02:58:20;;;;;;;65.03;37.55;;;;;;;6.42;47.29;100628.02;1782398;79;21640;-49
2021/04/12 03:01:21;;;;;;;63.50;37.98;;;;;;;6.42;47.45;100630.70;1783182;79;21147;-50
2021/04/12 03:04:03;;;;;;;69.82;36.68;;;;;;;6.41;47.33;100628.48;1783353;79;21509;-49
2021/04/12 03:07:09;;;;;;;63.80;37.45;;;;;;;6.40;47.25;100627.17;1782618;79;21395;-49
2021/04/12 03:09:55;;;;;;;70.25;36.30;;;;;;;6.40;47.19;100632.53;1783504;79;21116;-50
2021/04/12 03:12:50;;;;;;;59.20;35.52;;;;;;;6.38;47.13;100632.55;1783684;79;21108;-49
2021/04/12 03:15:59;;;;;;;58.85;35.25;;;;;;;6.40;47.23;100625.84;1783523;79;21104;-49
2021/04/12 03:19:11;;;;;;;61.98;34.35;;;;;;;6.41;47.07;100623.58;1783653;79;21041;-49
2021/04/12 03:21:54;;;;;;;57.15;34.55;;;;;;;6.40;46.99;100625.84;1783772;79;21216;-49
2021/04/12 03:24:27;;;;;;;66.10;36.93;;;;;;;6.40;46.89;100624.50;1782358;79;21103;-49
2021/04/12 03:27:23;;;;;;;63.05;36.08;;;;;;;6.39;47.01;100623.62;1782537;79;21670;-49
2021/04/12 03:30:18;;;;;;;59.83;35.08;;;;;;;6.40;47.05;100616.46;1782695;79;21152;-48
2021/04/12 03:33:02;;;;;;;65.10;37.65;;;;;;;6.40;47.24;100615.12;1782908;78;20990;-50
2021/04/12 03:35:41;;;;;;;57.88;34.78;;;;;;;6.39;47.63;100611.98;1752306;79;21373;-49
2021/04/12 03:38:32;;;;;;;61.02;35.33;;;;;;;6.39;47.85;100606.63;1783861;79;21146;-50
2021/04/12 03:41:34;;;;;;;64.03;34.38;;;;;;;6.37;48.01;100614.70;1783382;79;20970;-50
2021/04/12 03:44:19;;;;;;;61.50;35.03;;;;;;;6.35;48.29;100607.63;1782829;79;21684;-49
2021/04/12 03:47:36;;;;;;;65.05;36.30;;;;;;;6.30;48.37;100600.55;1808389;76;22695;-49
2021/04/12 03:50:30;;;;;;;62.15;37.08;;;;;;;6.18;48.56;100607.49;1783334;79;20962;-49
2021/04/12 03:53:35;;;;;;;75.08;38.90;;;;;;;6.17;48.61;100607.03;1830365;75;22706;-50
2021/04/12 03:56:31;;;;;;;71.02;36.42;;;;;;;6.05;49.16;100609.95;1798889;77;20938;-49
2021/04/12 03:59:16;;;;;;;64.85;37.78;;;;;;;5.98;49.30;100599.81;1799212;77;21076;-49
2021/04/12 04:02:16;;;;;;;68.05;37.45;;;;;;;5.98;49.35;100598.94;1799826;77;21982;-50
2021/04/12 04:05:12;;;;;;;68.92;37.03;;;;;;;5.98;49.46;100596.25;1796968;77;20980;-52
2021/04/12 04:08:15;;;;;;;66.90;37.85;;;;;;;5.94;49.68;100598.55;1777839;77;21003;-50
2021/04/12 04:11:04;;;;;;;;;;;;;;;5.92;49.42;100592.35;1799916;78;20941;-51
2021/04/12 04:13:47;;;;;;;60.17;33.73;;;;;;;5.96;49.20;100597.59;1799375;77;21201;-52
2021/04/12 04:16:44;;;;;;;64.95;36.93;;;;;;;6.00;49.16;100595.76;1799402;77;21671;-49
2021/04/12 04:19:35;;;;;;;68.37;37.45;;;;;;;6.06;49.06;100595.64;1797286;77;21588;-50
2021/04/12 04:22:27;;;;;;;64.15;36.53;;;;;;;6.11;49.06;100596.44;1801231;77;20961;-48
2021/04/12 04:25:21;;;;;;;68.45;35.68;;;;;;;6.21;48.99;100597.16;1801340;77;21092;-49
2021/04/12 04:28:23;;;;;;;62.25;37.15;;;;;;;6.27;48.91;100599.72;1800784;77;21374;-49
2021/04/12 04:31:14;;;;;;;60.73;37.63;;;;;;;6.34;48.84;100601.81;1801018;77;27044;-49
2021/04/12 04:34:06;;;;;;;79.20;40.40;;;;;;;6.38;48.88;100599.52;1800689;77;21754;-50
2021/04/12 04:36:59;;;;;;;65.83;38.55;;;;;;;6.42;48.98;100599.42;1802741;77;27850;-50
2021/04/12 04:39:55;;;;;;;64.25;37.63;;;;;;;6.46;48.97;100589.55;1802969;77;21155;-49
2021/04/12 04:42:35;;;;;;;62.15;36.35;;;;;;;6.51;49.11;100590.33;1801238;77;21545;-51
2021/04/12 04:45:33;;;;;;;68.95;37.58;;;;;;;6.52;49.17;100581.38;1795461;77;21155;-49
2021/04/12 04:48:25;;;;;;;73.02;39.55;;;;;;;6.53;49.43;100592.05;1798280;77;21592;-49
2021/04/12 04:51:31;;;;;;;77.42;41.23;;;;;;;6.53;49.86;100588.49;1805005;77;21119;-49
2021/04/12 04:54:42;;;;;;;73.12;41.70;;;;;;;6.49;50.42;100585.44;1798880;77;21533;-49
2021/04/12 04:58:05;;;;;;;66.20;38.73;;;;;;;6.47;50.94;100592.18;1797230;77;21198;-50
2021/04/12 05:00:55;;;;;;;75.72;40.73;;;;;;;6.48;51.26;100587.70;1799008;77;21182;-49
2021/04/12 05:04:05;;;;;;;79.22;42.73;;;;;;;6.51;51.59;100583.17;1800112;77;20994;-53
2021/04/12 05:07:37;;;;;;;69.62;41.28;;;;;;;6.62;51.86;100574.91;1769003;77;21490;-47
2021/04/12 05:10:27;;;;;;;80.03;43.13;;;;;;;6.61;51.93;100578.52;1745600;80;21588;-48
2021/04/12 05:13:35;;;;;;;71.20;40.67;;;;;;;6.64;52.32;100577.55;1744940;80;21378;-48
2021/04/12 05:16:22;;;;;;;68.12;38.42;;;;;;;6.74;52.64;100572.42;1934696;72;23254;-48
2021/04/12 05:19:37;;;;;;;82.02;42.70;;;;;;;6.71;52.85;100574.73;1883759;75;21562;-48
2021/04/12 05:22:43;;;;;;;69.15;40.12;;;;;;;6.74;52.80;100569.28;1851425;77;21194;-48
2021/04/12 05:26:07;;;;;;;74.17;40.20;;;;;;;6.84;52.78;100572.66;1884297;74;21554;-51
2021/04/12 05:29:19;;;;;;;71.55;41.70;;;;;;;6.93;52.71;100574.27;1884494;74;21025;-49
2021/04/12 05:32:12;;;;;;;75.12;42.48;;;;;;;7.03;52.69;100562.38;1884999;74;21628;-49
2021/04/12 05:34:58;;;;;;;73.40;42.27;;;;;;;7.10;52.73;100566.71;1848172;76;20953;-50
2021/04/12 05:37:52;;;;;;;75.28;43.20;;;;;;;7.19;52.53;100565.16;1854536;77;21956;-49
2021/04/12 05:41:08;;;;;;;80.92;43.50;;;;;;;7.32;52.36;100559.92;1883866;74;21098;-49
2021/04/12 05:44:06;;;;;;;77.17;43.50;;;;;;;7.47;52.29;100549.74;1852543;77;21195;-50
2021/04/12 05:47:02;;;;;;;75.08;42.05;;;;;;;7.59;52.09;100546.73;1883869;74;21179;-48
2021/04/12 05:49:53;;;;;;;73.50;43.13;;;;;;;7.72;51.75;100549.98;1850932;77;20969;-54
2021/04/12 05:52:47;;;;;;;70.83;41.42;;;;;;;7.83;51.61;100556.86;1882749;74;21119;-49
2021/04/12 05:55:40;;;;;;;76.85;41.65;;;;;;;7.95;51.42;100561.02;1853930;77;21001;-49
2021/04/12 05:58:40;;;;;;;75.47;42.73;;;;;;;8.10;50.81;100555.70;1817304;77;21703;-49
2021/04/12 06:01:53;;;;;;;78.87;42.62;;;;;;;8.25;50.60;100551.22;1878984;74;20969;-50
2021/04/12 06:04:32;;;;;;;77.37;41.42;;;;;;;8.38;50.42;100550.47;1880537;74;21129;-50
2021/04/12 06:07:11;;;;;;;65.72;39.55;;;;;;;8.51;50.33;100557.71;1850940;77;21379;-51
2021/04/12 06:10:04;;;;;;;69.75;41.58;;;;;;;8.64;49.83;100553.76;1881517;74;21534;-51
2021/04/12 06:15:53;;;;;;;69.92;45.20;;;;;;;8.92;49.37;100534.97;1762998;77;28587;-53
2021/04/12 06:18:55;;;;;;;69.07;39.50;;;;;;;9.01;49.02;100539.20;1720720;80;21045;-50
2021/04/12 06:22:06;;;;;;;66.67;36.85;;;;;;;9.16;48.62;100541.38;1721682;80;21162;-52
2021/04/12 06:24:55;;;;;;;58.25;34.63;;;;;;;9.30;48.23;100539.13;1727329;80;21401;-52
2021/04/12 06:30:47;;;;;;;63.75;37.28;;;;;;;9.68;47.60;100520.34;1794017;77;22665;-53
2021/04/12 06:33:30;;;;;;;62.33;36.03;;;;;;;9.75;47.47;100521.05;1737241;80;20986;-51
2021/04/12 06:36:49;;;;;;;57.65;34.80;;;;;;;9.89;47.35;100517.38;1738388;80;21212;-52
2021/04/12 06:39:39;;;;;;;61.63;36.03;;;;;;;10.00;47.21;100526.90;1733146;80;21546;-47
2021/04/12 06:42:53;;;;;;;58.13;32.93;;;;;;;10.14;47.16;100517.86;1732939;80;20986;-47
2021/04/12 06:45:58;;;;;;;73.00;38.73;;;;;;;10.26;46.75;100512.52;1732819;80;21770;-48
2021/04/12 06:49:07;;;;;;;60.65;35.55;;;;;;;10.31;46.74;100511.41;1733533;80;20993;-47
2021/04/12 06:51:47;;;;;;;60.98;35.78;;;;;;;10.41;46.70;100505.22;1733815;80;21640;-49
2021/04/12 06:54:47;;;;;;;56.63;33.73;;;;;;;10.51;46.58;100507.11;1733453;80;21162;-47
2021/04/12 06:57:33;;;;;;;58.45;33.65;;;;;;;10.56;46.49;100503.77;1730789;80;21013;-48
2021/04/12 07:00:56;;;;;;;56.00;33.20;;;;;;;10.63;46.35;100499.41;1731952;80;21159;-49
2021/04/12 07:03:57;;;;;;;52.23;31.73;;;;;;;10.69;46.42;100500.98;1739784;80;21630;-47
2021/04/12 07:06:55;;;;;;;49.77;30.62;;;;;;;10.80;46.31;100490.66;1736492;80;21460;-46
2021/04/12 07:10:07;;;;;;;65.00;36.70;;;;;;;10.88;46.33;100489.90;1730959;80;21442;-47
2021/04/12 07:12:46;;;;;;;60.43;35.52;;;;;;;10.98;46.38;100477.80;1735859;80;20985;-47
2021/04/12 07:16:13;;;;;;;61.48;35.75;;;;;;;11.09;46.29;100474.66;1734377;80;26566;-48
2021/04/12 07:19:12;;;;;;;61.02;36.10;;;;;;;11.13;46.23;100468.64;1731725;80;21170;-47
2021/04/12 07:22:13;;;;;;;60.52;34.88;;;;;;;11.20;46.02;100464.77;1730582;80;21943;-47
2021/04/12 07:25:06;;;;;;;65.87;37.73;;;;;;;11.26;46.03;100459.11;1731049;80;21135;-53
2021/04/12 07:28:11;;;;;;;66.45;38.88;;;;;;;11.33;46.16;100466.00;1732414;80;21052;-53
2021/04/12 07:31:17;;;;;;;67.60;36.10;;;;;;;11.41;46.48;100463.87;1733072;80;21165;-53
2021/04/12 07:34:06;;;;;;;64.62;37.20;;;;;;;11.49;46.42;100469.81;1735653;80;21113;-53
2021/04/12 07:36:57;;;;;;;56.90;34.83;;;;;;;11.56;46.68;100456.95;1739907;80;22083;-51
2021/04/12 07:40:10;;;;;;;63.70;37.90;;;;;;;11.64;46.55;100456.60;1714494;80;21960;-53
2021/04/12 07:43:14;;;;;;;54.65;33.30;;;;;;;11.68;46.74;100452.83;1737376;80;21049;-53
2021/04/12 07:46:16;;;;;;;52.93;33.70;;;;;;;11.75;46.58;100446.20;1731682;80;21591;-53
2021/04/12 07:49:21;;;;;;;58.68;36.75;;;;;;;11.88;46.75;100453.31;1728056;80;21128;-52
2021/04/12 07:52:15;;;;;;;66.75;37.28;;;;;;;11.99;46.91;100438.41;1736923;80;21374;-52
2021/04/12 07:55:10;;;;;;;57.27;34.65;;;;;;;12.09;46.81;100446.07;1731909;80;21597;-54
2021/04/12 07:58:26;;;;;;;57.33;33.60;;;;;;;12.16;46.69;100432.70;1735115;80;21697;-57
2021/04/12 08:01:24;;;;;;;63.00;34.80;;;;;;;12.29;46.42;100439.28;1736182;80;21054;-56
2021/04/12 08:04:06;;;;;;;46.60;30.08;;;;;;;12.42;45.93;100429.66;1735941;80;20985;-55
2021/04/12 08:07:25;;;;;;;40.78;24.50;;;;;;;12.69;43.13;100422.53;1810089;75;22560;-54
2021/04/12 08:10:41;;;;;;;28.62;13.28;;;;;;;12.69;43.13;100422.53;1783169;78;21505;-54
2021/04/12 08:13:37;;;;;;;13.70;8.50;;;;;;;12.98;38.57;100425.16;1783125;78;21377;-55
2021/04/12 08:16:38;;;;;;;17.70;6.97;;;;;;;13.30;35.78;100431.70;1783338;79;21583;-55
2021/04/12 08:19:37;;;;;;;13.60;7.37;;;;;;;13.59;33.79;100427.05;1783990;79;21025;-53
2021/04/12 08:22:47;;;;;;;12.10;6.97;;;;;;;13.82;32.91;100428.54;1783225;79;21681;-54
2021/04/12 08:25:24;;;;;;;15.75;8.13;;;;;;;13.94;32.15;100425.65;1774590;78;21130;-55
2021/04/12 08:28:23;;;;;;;13.93;9.20;;;;;;;14.03;31.32;100433.78;1783823;79;21915;-53
2021/04/12 08:31:28;;;;;;;14.43;8.13;;;;;;;14.06;31.47;100430.44;1782827;79;21014;-52
2021/04/12 08:34:36;;;;;;;17.25;10.72;;;;;;;14.08;32.03;100433.94;1779946;78;20998;-47
2021/04/12 08:37:35;;;;;;;17.60;10.32;;;;;;;14.14;32.52;100446.29;1781061;79;21442;-48
2021/04/12 08:40:37;;;;;;;17.80;10.65;;;;;;;14.21;32.39;100426.00;1782866;78;21021;-48
2021/04/12 08:43:46;;;;;;;14.58;9.80;;;;;;;14.30;32.65;100424.63;1813428;75;26040;-47
2021/04/12 08:46:58;;;;;;;20.32;11.80;;;;;;;14.27;32.89;100416.64;1787354;78;20999;-46
2021/04/12 08:50:07;;;;;;;28.85;12.65;;;;;;;14.31;33.26;100416.87;1792823;78;22176;-47
2021/04/12 08:53:23;;;;;;;19.32;12.28;;;;;;;14.42;33.15;100407.66;1767186;77;28092;-47
2021/04/12 08:56:38;;;;;;;18.87;11.15;;;;;;;14.41;32.65;100405.91;1757297;79;20972;-47
2021/04/12 08:59:38;;;;;;;17.45;10.88;;;;;;;14.37;32.98;100401.61;1757478;79;21206;-52
2021/04/12 09:02:48;;;;;;;17.95;11.05;;;;;;;14.31;32.58;100406.02;1758044;79;21573;-53
2021/04/12 09:06:01;;;;;;;15.98;9.10;;;;;;;14.27;32.92;100395.81;1757365;79;21044;-53
2021/04/12 09:09:10;;;;;;;8.10;5.90;;;;;;;14.25;31.96;100399.59;1758778;79;21537;-55
2021/04/12 09:12:24;;;;;;;10.53;5.70;;;;;;;14.19;30.57;100398.09;1760118;79;20973;-53
2021/04/12 09:15:35;;;;;;;14.38;7.00;;;;;;;14.12;30.78;100366.36;1762389;79;21444;-54
2021/04/12 09:18:40;;;;;;;12.73;7.30;;;;;;;14.09;31.46;100365.16;1757470;79;21644;-54
2021/04/12 09:21:48;;;;;;;13.68;7.55;;;;;;;14.13;31.76;100370.81;1763448;79;21005;-55
2021/04/12 09:24:43;;;;;;;12.98;7.90;;;;;;;14.19;31.66;100368.73;1762774;79;21151;-54
2021/04/12 09:27:36;;;;;;;11.83;6.85;;;;;;;14.26;31.82;100360.63;1756351;79;20934;-54
2021/04/12 09:30:19;;;;;;;12.85;6.12;;;;;;;14.24;31.33;100358.50;1758068;79;22073;-54
2021/04/12 09:33:26;;;;;;;11.12;6.42;;;;;;;14.19;30.81;100353.81;1759624;79;21017;-54
2021/04/12 09:36:07;;;;;;;15.98;6.53;;;;;;;14.19;31.26;100345.67;1762276;79;20946;-55
2021/04/12 09:39:13;;;;;;;12.15;6.90;;;;;;;14.27;31.62;100336.60;1762699;79;21037;-54
2021/04/12 09:42:13;;;;;;;15.98;6.42;;;;;;;14.33;31.48;100333.57;1757692;79;21538;-55
2021/04/12 09:45:08;;;;;;;17.00;7.90;;;;;;;14.33;31.58;100335.80;1759830;79;21370;-54
2021/04/12 09:48:22;;;;;;;15.08;8.50;;;;;;;14.37;32.31;100331.05;1761864;79;21001;-53
2021/04/12 09:51:27;;;;;;;11.85;7.90;;;;;;;14.31;33.21;100325.98;1758274;79;21092;-54
2021/04/12 09:54:26;;;;;;;16.37;8.30;;;;;;;14.24;33.81;100324.10;1716827;81;21132;-54
2021/04/12 09:57:22;;;;;;;11.95;7.53;;;;;;;14.24;34.19;100324.59;1710162;81;20990;-55
2021/04/12 10:00:22;;;;;;;16.15;8.80;;;;;;;14.25;34.95;100320.91;1713707;81;21312;-54
2021/04/12 10:03:38;;;;;;;16.10;9.05;;;;;;;14.19;35.88;100309.05;1716211;81;21238;-55
2021/04/12 10:06:32;;;;;;;16.32;10.78;;;;;;;14.11;36.50;100304.94;1684290;83;21133;-60
2021/04/12 10:09:14;;;;;;;19.12;10.18;;;;;;;14.14;36.97;100297.97;1712283;81;21780;-54
2021/04/12 10:12:00;;;;;;;19.05;9.98;;;;;;;14.12;37.80;100301.73;1684067;83;20987;-55
2021/04/12 10:14:43;;;;;;;18.62;11.35;;;;;;;14.04;38.57;100291.30;1825564;77;23384;-54
2021/04/12 10:17:22;;;;;;;13.13;9.90;;;;;;;13.95;39.07;100297.71;1782510;77;21001;-54
2021/04/12 10:19:59;;;;;;;16.32;10.10;;;;;;;13.95;39.21;100289.58;1764624;78;21536;-54
2021/04/12 10:22:52;;;;;;;15.63;10.40;;;;;;;13.98;39.39;100294.36;1765468;78;21132;-54
2021/04/12 10:25:36;;;;;;;22.02;9.15;;;;;;;14.04;39.76;100282.30;1807698;76;22775;-53
2021/04/12 10:28:41;;;;;;;24.77;11.22;;;;;;;13.90;40.58;100291.19;1805510;77;21120;-54
2021/04/12 10:31:26;;;;;;;22.93;11.50;;;;;;;13.84;40.94;100294.23;1805405;77;22023;-55
2021/04/12 10:34:11;;;;;;;16.50;11.08;;;;;;;13.82;40.75;100292.11;1805176;77;20979;-53
2021/04/12 10:37:36;;;;;;;14.83;9.85;;;;;;;13.83;41.10;100297.92;1803617;77;21002;-52
2021/04/12 10:40:33;;;;;;;18.05;10.40;;;;;;;13.87;40.42;100303.58;1805957;77;21569;-53
2021/04/12 10:43:30;;;;;;;19.95;9.15;;;;;;;13.84;40.62;100306.44;1766532;79;20970;-57
2021/04/12 10:46:17;;;;;;;12.20;8.75;;;;;;;13.90;41.46;100312.88;1843716;75;22648;-55
2021/04/12 10:49:07;;;;;;;16.20;8.70;;;;;;;13.80;42.27;100313.02;1839247;76;20954;-54
2021/04/12 10:51:59;;;;;;;15.78;8.70;;;;;;;13.74;43.07;100314.67;1840904;76;21341;-55
2021/04/12 10:54:51;;;;;;;14.75;9.80;;;;;;;13.70;44.63;100324.83;1759266;79;20999;-55
2021/04/12 10:57:33;;;;;;;15.65;9.80;;;;;;;13.59;45.79;100318.63;1773392;80;20990;-55
2021/04/12 11:00:43;;;;;;;17.25;9.68;;;;;;;13.52;47.62;100316.31;1756507;80;20982;-54
2021/04/12 11:03:36;;;;;;;28.02;14.58;;;;;;;13.46;48.53;100318.87;1771315;80;21582;-55
2021/04/12 11:06:11;;;;;;;29.02;13.88;;;;;;;13.33;52.51;100314.59;1787191;79;21202;-55
2021/04/12 11:09:03;;;;;;;45.25;18.07;;;;;;;12.94;54.82;100316.13;1761937;79;21014;-55
2021/04/12 11:11:52;;;;;;;28.40;13.88;;;;;;;12.68;55.97;100313.89;1743037;79;21049;-56
2021/04/12 11:14:35;;;;;;;27.45;16.90;;;;;;;12.47;57.34;100311.28;1810124;75;27977;-53
2021/04/12 11:17:39;;;;;;;35.80;19.62;;;;;;;12.32;59.32;100317.44;1726945;79;21568;-55
2021/04/12 11:20:20;;;;;;;35.48;19.85;;;;;;;12.09;61.61;100323.05;1758537;79;22091;-56
2021/04/12 11:22:59;;;;;;;29.63;18.57;;;;;;;11.80;64.05;100311.75;1757142;78;21013;-56
2021/04/12 11:26:09;;;;;;;33.35;20.68;;;;;;;11.58;64.04;100328.55;1763666;79;20992;-57
2021/04/12 11:28:47;;;;;;;43.00;21.68;;;;;;;11.43;65.96;100317.48;1763282;79;21029;-54
2021/04/12 11:31:27;;;;;;;41.30;21.33;;;;;;;11.27;67.97;100329.91;1764348;79;21010;-56
2021/04/12 11:34:25;;;;;;;40.30;21.75;;;;;;;11.18;68.46;100326.25;1761132;79;21632;-56
2021/04/12 11:37:24;;;;;;;43.58;21.27;;;;;;;11.10;70.39;100318.50;1757729;79;21049;-57
2021/04/12 11:40:04;;;;;;;31.93;21.27;;;;;;;10.97;71.80;100319.51;1761939;79;20989;-60
2021/04/12 11:42:36;;;;;;;32.30;19.37;;;;;;;10.91;73.31;100321.09;1760079;79;20994;-56
2021/04/12 11:45:19;;;;;;;33.80;20.20;;;;;;;10.82;73.16;100312.06;1762640;79;21351;-55
2021/04/12 11:48:16;;;;;;;32.67;19.23;;;;;;;10.74;73.77;100310.14;1730600;79;21488;-56
2021/04/12 11:51:02;;;;;;;36.03;20.57;;;;;;;10.73;74.08;100305.70;1758473;79;21557;-53
2021/04/12 11:53:52;;;;;;;30.60;21.33;;;;;;;10.78;74.83;100300.98;1762766;79;21009;-56
2021/04/12 11:56:50;;;;;;;30.70;21.35;;;;;;;10.83;75.03;100303.02;1763186;79;21195;-54
2021/04/12 12:00:02;;;;;;;31.75;20.37;;;;;;;10.83;75.03;100303.02;1762634;79;21609;-54
2021/04/12 12:03:01;;;;;;;44.42;22.13;;;;;;;10.84;75.03;100298.02;1758388;79;21272;-52
2021/04/12 12:05:42;;;;;;;45.58;22.58;;;;;;;10.88;75.22;100299.66;1761820;79;21633;-55
2021/04/12 12:08:24;;;;;;;39.07;25.87;;;;;;;10.97;75.76;100285.77;1799944;76;28850;-54
2021/04/12 12:11:18;;;;;;;33.10;21.75;;;;;;;11.05;76.24;100282.73;1795641;77;20966;-55
2021/04/12 12:14:02;;;;;;;34.15;22.60;;;;;;;11.05;76.24;100282.73;1790266;77;21365;-55
2021/04/12 12:16:36;;;;;;;34.18;20.32;;;;;;;11.06;76.38;100280.91;1753300;78;21600;-53
2021/04/12 12:19:19;;;;;;;63.15;33.92;;;;;;;11.06;75.92;100280.91;1744534;79;21565;-58
2021/04/12 12:22:08;;;;;;;28.50;19.87;;;;;;;11.08;75.88;100279.00;1748556;79;21131;-53
2021/04/12 12:24:56;;;;;;;25.72;17.30;;;;;;;11.16;74.59;100276.86;1749950;79;21552;-53
2021/04/12 12:27:45;;;;;;;25.85;18.48;;;;;;;11.21;74.09;100268.08;1773093;76;27969;-52
2021/04/12 12:30:27;;;;;;;25.35;15.98;;;;;;;11.20;73.69;100271.73;1773916;79;21013;-56
2021/04/12 12:33:08;;;;;;;26.25;16.82;;;;;;;11.24;72.99;100278.28;1776042;79;21359;-55
2021/04/12 12:36:15;;;;;;;23.77;15.98;;;;;;;11.22;72.70;100273.88;1771244;79;21018;-51
2021/04/12 12:38:57;;;;;;;25.45;16.73;;;;;;;11.21;72.69;100270.30;1774230;79;21008;-51
2021/04/12 12:41:27;;;;;;;25.82;17.00;;;;;;;11.20;72.86;100267.68;1774324;79;21328;-51
2021/04/12 12:44:03;;;;;;;24.30;16.35;;;;;;;11.18;73.31;100270.91;1737483;81;21711;-52
2021/04/12 12:46:35;;;;;;;25.43;16.20;;;;;;;11.16;73.26;100271.45;1713907;82;21391;-53
2021/04/12 12:49:12;;;;;;;25.57;18.60;;;;;;;11.07;73.08;100271.86;1711607;82;20978;-51
2021/04/12 12:51:57;;;;;;;70.08;21.80;;;;;;;11.07;73.08;100271.86;1712136;82;21444;-54
2021/04/12 12:54:39;;;;;;;28.52;18.50;;;;;;;11.08;72.61;100277.66;1737995;80;21012;-53
2021/04/12 12:57:15;;;;;;;27.40;15.88;;;;;;;11.08;71.38;100277.20;1738827;80;21548;-53
2021/04/12 12:59:51;;;;;;;26.68;16.30;;;;;;;11.07;71.23;100288.05;1711040;82;21203;-53
2021/04/12 13:02:33;;;;;;;24.95;16.02;;;;;;;11.03;71.32;100275.18;1712990;82;21057;-55
2021/04/12 13:05:10;;;;;;;20.15;14.70;;;;;;;11.03;71.86;100277.01;1740745;80;21592;-55
2021/04/12 13:07:38;;;;;;;23.18;15.80;;;;;;;11.08;72.01;100279.00;1739561;80;21613;-55
2021/04/12 13:10:12;;;;;;;29.20;16.32;;;;;;;11.09;72.00;100271.33;1740087;80;21035;-54
2021/04/12 13:12:42;;;;;;;25.30;16.48;;;;;;;11.11;71.46;100265.38;1739120;80;21199;-55
2021/04/12 13:15:33;;;;;;;23.05;15.45;;;;;;;11.12;71.36;100263.08;1714408;82;21160;-52
2021/04/12 13:18:10;;;;;;;25.50;16.82;;;;;;;11.15;71.21;100267.01;1713431;82;21192;-54
2021/04/12 13:21:07;;;;;;;36.83;22.45;;;;;;;11.23;71.13;100267.53;1814366;77;22694;-52
2021/04/12 13:23:50;;;;;;;30.95;18.30;;;;;;;11.22;71.18;100271.18;1776415;79;20974;-55
2021/04/12 13:26:47;;;;;;;29.48;18.15;;;;;;;11.23;71.19;100271.10;1717201;82;22210;-57
2021/04/12 13:29:25;;;;;;;27.50;17.20;;;;;;;11.25;71.16;100264.31;1746050;81;20970;-54
2021/04/12 13:32:16;;;;;;;27.85;15.90;;;;;;;11.30;71.01;100264.98;1717625;82;21009;-56
2021/04/12 13:34:57;;;;;;;25.77;16.52;;;;;;;11.35;70.90;100262.95;1743304;81;21756;-52